createdAt,value
2019-01-21T00:00:12.755Z,32.70
2019-01-21T00:01:12.722Z,30.70
2019-01-21T00:02:12.723Z,30.40
2019-01-21T00:03:14.743Z,29.70
2019-01-21T00:04:12.688Z,27.40
2019-01-21T00:05:12.704Z,30.30
2019-01-21T00:06:12.670Z,32.00
2019-01-21T00:07:12.663Z,29.30
2019-01-21T00:08:12.642Z,32.70
2019-01-21T00:09:12.634Z,28.20
2019-01-21T00:10:12.670Z,31.00
2019-01-21T00:11:12.614Z,30.60
2019-01-21T00:12:12.621Z,31.40
2019-01-21T00:13:12.590Z,30.10
2019-01-21T00:14:12.580Z,31.60
2019-01-21T00:15:12.575Z,29.90
2019-01-21T00:16:12.580Z,32.50
2019-01-21T00:17:12.551Z,33.90
2019-01-21T00:18:12.541Z,31.30
2019-01-21T00:19:12.583Z,31.00
2019-01-21T00:20:12.517Z,33.60
2019-01-21T00:21:12.521Z,33.70
2019-01-21T00:22:12.509Z,35.50
2019-01-21T00:23:12.480Z,34.20
2019-01-21T00:24:12.491Z,36.50
2019-01-21T00:25:12.479Z,37.10
2019-01-21T00:26:12.473Z,35.30
2019-01-21T00:27:12.432Z,34.80
2019-01-21T00:28:12.452Z,37.60
2019-01-21T00:29:12.421Z,38.00
2019-01-21T00:30:12.432Z,37.20
2019-01-21T00:31:12.431Z,37.30
2019-01-21T00:32:12.375Z,39.50
2019-01-21T00:33:12.379Z,35.70
2019-01-21T00:34:12.358Z,41.10
2019-01-21T00:35:12.359Z,35.70
2019-01-21T00:36:12.368Z,38.70
2019-01-21T00:37:12.337Z,39.00
2019-01-21T00:38:12.328Z,39.20
2019-01-21T00:39:12.305Z,39.10
2019-01-21T00:40:12.298Z,34.50
2019-01-21T00:41:12.289Z,35.50
2019-01-21T00:42:12.293Z,33.20
2019-01-21T00:43:12.277Z,32.40
2019-01-21T00:44:12.247Z,35.30
2019-01-21T00:45:12.317Z,34.10
2019-01-21T00:46:12.238Z,33.60
2019-01-21T00:47:12.248Z,35.20
2019-01-21T00:48:12.216Z,36.60
2019-01-21T00:49:12.202Z,35.80
2019-01-21T00:50:12.201Z,36.60
2019-01-21T00:51:12.182Z,35.10
2019-01-21T00:52:12.175Z,36.10
2019-01-21T00:53:12.160Z,34.50
2019-01-21T00:54:12.146Z,37.40
2019-01-21T00:55:12.148Z,35.10
2019-01-21T00:56:12.119Z,33.40
2019-01-21T00:57:12.124Z,32.70
2019-01-21T00:58:12.094Z,36.40
2019-01-21T00:59:12.100Z,34.80
2019-01-21T01:00:12.076Z,36.90
2019-01-21T01:01:12.059Z,36.10
2019-01-21T01:02:12.069Z,33.20
2019-01-21T01:03:12.046Z,35.40
2019-01-21T01:04:12.033Z,36.20
2019-01-21T01:05:12.037Z,35.00
2019-01-21T01:06:12.018Z,32.50
2019-01-21T01:07:12.028Z,35.60
2019-01-21T01:08:12.003Z,32.40
2019-01-21T01:09:11.973Z,34.50
2019-01-21T01:10:11.965Z,33.60
2019-01-21T01:11:12.008Z,35.00
2019-01-21T01:12:11.944Z,34.80
2019-01-21T01:13:11.960Z,35.50
2019-01-21T01:14:11.928Z,40.90
2019-01-21T01:15:11.907Z,32.90
2019-01-21T01:16:11.914Z,33.30
2019-01-21T01:17:11.890Z,36.30
2019-01-21T01:18:11.898Z,29.80
2019-01-21T01:19:11.883Z,33.70
2019-01-21T01:20:11.862Z,32.10
2019-01-21T01:21:11.853Z,35.80
2019-01-21T01:22:11.858Z,33.70
2019-01-21T01:23:11.841Z,37.20
2019-01-21T01:24:11.819Z,32.60
2019-01-21T01:25:11.813Z,34.80
2019-01-21T01:26:11.794Z,36.10
2019-01-21T01:27:11.788Z,31.60
2019-01-21T01:28:11.800Z,33.10
2019-01-21T01:29:11.755Z,31.90
2019-01-21T01:30:11.751Z,31.60
2019-01-21T01:31:11.741Z,36.60
2019-01-21T01:32:11.758Z,35.30
2019-01-21T01:33:11.743Z,29.00
2019-01-21T01:34:11.709Z,34.40
2019-01-21T01:35:11.691Z,34.80
2019-01-21T01:36:11.683Z,32.00
2019-01-21T01:37:11.677Z,34.00
2019-01-21T01:38:11.661Z,31.80
2019-01-21T01:39:11.669Z,33.70
2019-01-21T01:40:11.637Z,36.00
2019-01-21T01:41:11.622Z,33.80
2019-01-21T01:42:11.625Z,33.20
2019-01-21T01:43:11.605Z,36.60
2019-01-21T01:44:11.614Z,34.00
2019-01-21T01:45:11.581Z,33.10
2019-01-21T01:46:11.577Z,33.90
2019-01-21T01:47:11.566Z,35.00
2019-01-21T01:48:11.554Z,33.90
2019-01-21T01:49:11.565Z,34.60
2019-01-21T01:50:11.532Z,34.10
2019-01-21T01:51:11.522Z,34.80
2019-01-21T01:52:11.516Z,33.00
2019-01-21T01:53:11.490Z,33.60
2019-01-21T01:54:11.519Z,35.70
2019-01-21T01:55:11.479Z,33.10
2019-01-21T01:56:11.470Z,33.20
2019-01-21T01:57:11.466Z,30.60
2019-01-21T01:58:11.440Z,33.90
2019-01-21T01:59:11.459Z,34.90
2019-01-21T02:00:11.424Z,36.40
2019-01-21T02:01:11.415Z,33.80
2019-01-21T02:02:11.417Z,35.30
2019-01-21T02:03:11.396Z,35.40
2019-01-21T02:04:11.403Z,34.50
2019-01-21T02:05:11.385Z,38.30
2019-01-21T02:06:11.364Z,35.10
2019-01-21T02:07:11.347Z,37.50
2019-01-21T02:08:11.332Z,38.50
2019-01-21T02:09:11.345Z,38.00
2019-01-21T02:10:11.320Z,33.70
2019-01-21T02:11:11.306Z,38.60
2019-01-21T02:12:11.292Z,36.30
2019-01-21T02:13:11.274Z,31.30
2019-01-21T02:14:11.268Z,34.30
2019-01-21T02:15:11.304Z,34.90
2019-01-21T02:16:11.262Z,35.60
2019-01-21T02:17:11.239Z,36.70
2019-01-21T02:18:11.248Z,34.80
2019-01-21T02:19:11.212Z,34.30
2019-01-21T02:20:11.225Z,38.30
2019-01-21T02:21:11.195Z,33.10
2019-01-21T02:22:11.203Z,34.00
2019-01-21T02:23:11.168Z,37.20
2019-01-21T02:24:11.242Z,36.20
2019-01-21T02:25:11.192Z,38.50
2019-01-21T02:26:11.164Z,37.20
2019-01-21T02:27:11.139Z,38.70
2019-01-21T02:28:11.121Z,37.80
2019-01-21T02:29:11.116Z,36.30
2019-01-21T02:30:11.114Z,32.50
2019-01-21T02:31:11.120Z,33.50
2019-01-21T02:32:11.076Z,35.70
2019-01-21T02:33:11.080Z,34.80
2019-01-21T02:34:11.052Z,34.40
2019-01-21T02:35:11.046Z,33.80
2019-01-21T02:36:11.051Z,36.10
2019-01-21T02:37:11.020Z,35.70
2019-01-21T02:38:11.006Z,40.40
2019-01-21T02:39:11.001Z,38.70
2019-01-21T02:40:10.997Z,42.10
2019-01-21T02:41:11.002Z,39.60
2019-01-21T02:42:10.961Z,41.20
2019-01-21T02:43:10.968Z,40.80
2019-01-21T02:44:10.942Z,42.00
2019-01-21T02:45:10.954Z,41.40
2019-01-21T02:46:10.951Z,41.20
2019-01-21T02:47:10.910Z,41.00
2019-01-21T02:48:10.896Z,40.00
2019-01-21T02:49:10.885Z,41.70
2019-01-21T02:50:10.895Z,42.10
2019-01-21T02:51:10.886Z,45.10
2019-01-21T02:52:10.873Z,45.00
2019-01-21T02:53:10.860Z,41.60
2019-01-21T02:54:10.840Z,42.50
2019-01-21T02:55:10.822Z,41.50
2019-01-21T02:56:10.822Z,43.90
2019-01-21T02:57:10.805Z,46.40
2019-01-21T02:58:10.801Z,37.80
2019-01-21T02:59:10.794Z,44.00
2019-01-21T03:00:10.774Z,43.40
2019-01-21T03:01:10.794Z,43.40
2019-01-21T03:02:10.747Z,45.30
2019-01-21T03:03:10.744Z,44.20
2019-01-21T03:04:10.728Z,43.80
2019-01-21T03:05:10.711Z,41.90
2019-01-21T03:06:10.707Z,38.70
2019-01-21T03:07:10.721Z,39.80
2019-01-21T03:08:10.679Z,37.90
2019-01-21T03:09:10.674Z,40.60
2019-01-21T03:10:10.661Z,41.80
2019-01-21T03:11:10.643Z,42.40
2019-01-21T03:12:10.662Z,35.50
2019-01-21T03:13:10.627Z,37.40
2019-01-21T03:14:10.621Z,39.30
2019-01-21T03:15:10.610Z,40.70
2019-01-21T03:16:10.604Z,39.90
2019-01-21T03:17:10.604Z,38.60
2019-01-21T03:18:10.581Z,41.00
2019-01-21T03:19:10.567Z,39.70
2019-01-21T03:20:10.577Z,38.90
2019-01-21T03:21:10.537Z,36.90
2019-01-21T03:22:10.572Z,44.20
2019-01-21T03:23:10.519Z,43.80
2019-01-21T03:24:10.538Z,41.90
2019-01-21T03:25:10.499Z,36.70
2019-01-21T03:26:10.510Z,41.20
2019-01-21T03:27:10.484Z,39.70
2019-01-21T03:28:10.470Z,40.70
2019-01-21T03:29:10.454Z,38.40
2019-01-21T03:30:10.460Z,38.20
2019-01-21T03:31:10.437Z,40.30
2019-01-21T03:32:10.457Z,38.20
2019-01-21T03:33:10.409Z,38.90
2019-01-21T03:34:10.408Z,37.10
2019-01-21T03:35:10.401Z,40.70
2019-01-21T03:36:10.383Z,38.30
2019-01-21T03:37:10.403Z,38.60
2019-01-21T03:38:10.354Z,38.20
2019-01-21T03:39:10.345Z,40.30
2019-01-21T03:40:10.349Z,37.60
2019-01-21T03:41:10.334Z,39.10
2019-01-21T03:42:10.337Z,41.50
2019-01-21T03:43:10.307Z,42.60
2019-01-21T03:44:10.308Z,43.10
2019-01-21T03:45:10.278Z,41.40
2019-01-21T03:46:10.267Z,44.20
2019-01-21T03:47:10.274Z,45.50
2019-01-21T03:48:16.530Z,41.80
2019-01-21T03:49:11.265Z,40.10
2019-01-21T03:50:10.249Z,40.40
2019-01-21T03:51:10.216Z,43.20
2019-01-21T03:52:10.225Z,41.60
2019-01-21T03:53:10.213Z,40.00
2019-01-21T03:54:10.187Z,42.00
2019-01-21T03:55:10.195Z,44.40
2019-01-21T03:56:10.182Z,42.50
2019-01-21T03:57:10.158Z,41.80
2019-01-21T03:58:10.154Z,41.40
2019-01-21T03:59:10.134Z,42.10
2019-01-21T04:00:10.124Z,40.40
2019-01-21T04:01:10.109Z,42.50
2019-01-21T04:02:10.122Z,42.30
2019-01-21T04:03:10.085Z,44.70
2019-01-21T04:04:10.088Z,45.10
2019-01-21T04:05:10.055Z,45.70
2019-01-21T04:06:10.056Z,44.50
2019-01-21T04:07:10.042Z,47.70
2019-01-21T04:08:10.053Z,44.10
2019-01-21T04:09:10.027Z,48.00
2019-01-21T04:10:10.010Z,46.70
2019-01-21T04:11:10.002Z,49.30
2019-01-21T04:12:09.987Z,46.30
2019-01-21T04:13:10.002Z,45.20
2019-01-21T04:14:09.966Z,46.20
2019-01-21T04:15:09.968Z,53.20
2019-01-21T04:16:09.937Z,45.10
2019-01-21T04:17:09.936Z,48.80
2019-01-21T04:18:09.944Z,47.80
2019-01-21T04:19:09.911Z,48.20
2019-01-21T04:20:09.904Z,47.40
2019-01-21T04:21:09.890Z,47.90
2019-01-21T04:22:09.881Z,46.70
2019-01-21T04:23:09.886Z,45.10
2019-01-21T04:24:09.869Z,50.30
2019-01-21T04:25:09.852Z,51.10
2019-01-21T04:26:09.835Z,47.50
2019-01-21T04:27:09.863Z,47.70
2019-01-21T04:28:09.825Z,48.30
2019-01-21T04:29:09.809Z,45.60
2019-01-21T04:30:09.803Z,52.00
2019-01-21T04:31:09.793Z,49.30
2019-01-21T04:32:09.780Z,51.50
2019-01-21T04:33:09.809Z,45.50
2019-01-21T04:34:09.765Z,47.60
2019-01-21T04:35:09.737Z,46.00
2019-01-21T04:36:09.723Z,45.30
2019-01-21T04:37:09.711Z,47.50
2019-01-21T04:38:09.729Z,49.60
2019-01-21T04:39:09.710Z,46.50
2019-01-21T04:40:09.714Z,47.00
2019-01-21T04:41:09.671Z,45.80
2019-01-21T04:42:09.658Z,43.00
2019-01-21T04:43:09.683Z,45.30
2019-01-21T04:44:09.636Z,43.50
2019-01-21T04:45:09.638Z,43.00
2019-01-21T04:46:09.613Z,44.80
2019-01-21T04:47:09.619Z,41.00
2019-01-21T04:48:09.595Z,41.80
2019-01-21T04:49:09.601Z,42.20
2019-01-21T04:50:09.592Z,44.40
2019-01-21T04:51:09.573Z,46.00
2019-01-21T04:52:09.543Z,42.60
2019-01-21T04:53:09.544Z,46.00
2019-01-21T04:54:09.569Z,42.00
2019-01-21T04:55:09.533Z,43.10
2019-01-21T04:56:09.509Z,45.30
2019-01-21T04:57:09.511Z,48.40
2019-01-21T04:58:09.479Z,40.60
2019-01-21T04:59:09.496Z,44.10
2019-01-21T05:00:09.463Z,43.80
2019-01-21T05:01:09.464Z,44.10
2019-01-21T05:02:09.439Z,43.10
2019-01-21T05:03:09.436Z,45.50
2019-01-21T05:04:09.453Z,45.20
2019-01-21T05:05:09.403Z,46.20
2019-01-21T05:06:09.403Z,44.60
2019-01-21T05:07:09.389Z,44.20
2019-01-21T05:08:09.393Z,47.00
2019-01-21T05:09:09.389Z,44.10
2019-01-21T05:10:09.352Z,45.70
2019-01-21T05:11:09.354Z,49.50
2019-01-21T05:12:09.348Z,45.70
2019-01-21T05:13:09.317Z,47.70
2019-01-21T05:14:09.326Z,43.60
2019-01-21T05:15:09.322Z,49.60
2019-01-21T05:16:09.290Z,43.70
2019-01-21T05:17:09.290Z,50.50
2019-01-21T05:18:09.264Z,44.70
2019-01-21T05:19:09.309Z,44.60
2019-01-21T05:20:09.405Z,45.60
2019-01-21T05:21:09.232Z,48.10
2019-01-21T05:22:09.231Z,43.40
2019-01-21T05:23:09.216Z,44.40
2019-01-21T05:24:09.244Z,43.70
2019-01-21T05:25:09.229Z,44.60
2019-01-21T05:26:09.192Z,41.50
2019-01-21T05:27:09.171Z,39.00
2019-01-21T05:28:09.166Z,40.60
2019-01-21T05:29:09.171Z,42.60
2019-01-21T05:30:09.174Z,42.40
2019-01-21T05:31:09.148Z,43.40
2019-01-21T05:32:09.194Z,42.90
2019-01-21T05:33:09.110Z,43.20
2019-01-21T05:34:09.120Z,44.40
2019-01-21T05:35:09.076Z,43.60
2019-01-21T05:36:09.077Z,43.60
2019-01-21T05:37:09.070Z,45.50
2019-01-21T05:38:09.066Z,45.00
2019-01-21T05:39:09.049Z,43.50
2019-01-21T05:40:09.027Z,45.50
2019-01-21T05:41:09.015Z,45.00
2019-01-21T05:42:09.019Z,46.10
2019-01-21T05:43:08.983Z,47.40
2019-01-21T05:44:09.019Z,45.30
2019-01-21T05:45:08.968Z,47.30
2019-01-21T05:46:08.970Z,46.30
2019-01-21T05:47:08.974Z,45.30
2019-01-21T05:48:08.962Z,46.80
2019-01-21T05:49:08.929Z,48.10
2019-01-21T05:50:08.938Z,46.50
2019-01-21T05:51:08.929Z,50.00
2019-01-21T05:52:08.910Z,48.90
2019-01-21T05:53:08.894Z,49.70
2019-01-21T05:54:08.901Z,48.70
2019-01-21T05:55:08.897Z,46.90
2019-01-21T05:56:08.859Z,48.50
2019-01-21T05:57:08.854Z,47.00
2019-01-21T05:58:08.827Z,46.50
2019-01-21T05:59:08.823Z,46.10
2019-01-21T06:00:08.816Z,48.70
2019-01-21T06:01:08.807Z,46.40
2019-01-21T06:02:08.783Z,46.70
2019-01-21T06:03:08.788Z,47.00
2019-01-21T06:04:08.767Z,49.90
2019-01-21T06:05:08.822Z,46.00
2019-01-21T06:06:08.749Z,47.00
2019-01-21T06:07:08.739Z,49.70
2019-01-21T06:08:08.738Z,49.20
2019-01-21T06:09:08.723Z,55.30
2019-01-21T06:10:08.727Z,50.60
2019-01-21T06:11:08.703Z,47.40
2019-01-21T06:12:08.683Z,49.20
2019-01-21T06:13:08.669Z,46.00
2019-01-21T06:14:08.726Z,43.70
2019-01-21T06:15:08.686Z,48.90
2019-01-21T06:16:08.646Z,46.80
2019-01-21T06:17:08.625Z,47.20
2019-01-21T06:18:08.607Z,47.50
2019-01-21T06:19:09.475Z,48.70
2019-01-21T06:20:08.597Z,48.20
2019-01-21T06:21:08.599Z,44.00
2019-01-21T06:22:08.573Z,47.20
2019-01-21T06:23:08.565Z,49.70
2019-01-21T06:24:08.567Z,47.50
2019-01-21T06:25:08.555Z,47.90
2019-01-21T06:26:08.543Z,45.80
2019-01-21T06:27:08.513Z,51.90
2019-01-21T06:28:08.682Z,48.70
2019-01-21T06:29:08.504Z,50.40
2019-01-21T06:30:08.486Z,51.90
2019-01-21T06:31:08.483Z,44.40
2019-01-21T06:32:08.457Z,50.60
2019-01-21T06:33:08.453Z,49.50
2019-01-21T06:34:08.456Z,47.10
2019-01-21T06:35:08.432Z,50.30
2019-01-21T06:36:08.494Z,45.90
2019-01-21T06:37:08.412Z,53.60
2019-01-21T06:38:08.430Z,52.00
2019-01-21T06:39:08.396Z,51.30
2019-01-21T06:40:08.398Z,51.10
2019-01-21T06:41:08.380Z,50.10
2019-01-21T06:42:08.366Z,51.50
2019-01-21T06:43:08.352Z,47.30
2019-01-21T06:44:08.339Z,52.00
2019-01-21T06:45:08.366Z,52.40
2019-01-21T06:46:08.347Z,49.50
2019-01-21T06:47:08.318Z,49.70
2019-01-21T06:48:08.296Z,52.30
2019-01-21T06:49:08.278Z,53.20
2019-01-21T06:50:08.553Z,50.00
2019-01-21T06:51:08.260Z,53.60
2019-01-21T06:52:08.291Z,51.80
2019-01-21T06:53:08.293Z,51.60
2019-01-21T06:54:08.224Z,50.10
2019-01-21T06:55:08.219Z,50.50
2019-01-21T06:56:08.194Z,49.20
2019-01-21T06:57:08.204Z,48.90
2019-01-21T06:58:08.191Z,48.20
2019-01-21T06:59:08.177Z,50.00
2019-01-21T07:00:08.153Z,50.80
2019-01-21T07:01:08.141Z,48.20
2019-01-21T07:02:08.155Z,48.90
2019-01-21T07:03:08.125Z,48.40
2019-01-21T07:04:08.115Z,47.40
2019-01-21T07:05:08.118Z,48.60
2019-01-21T07:06:08.095Z,51.70
2019-01-21T07:07:08.101Z,47.30
2019-01-21T07:08:08.069Z,45.60
2019-01-21T07:09:08.063Z,48.30
2019-01-21T07:10:08.039Z,47.70
2019-01-21T07:11:08.032Z,49.60
2019-01-21T07:12:08.039Z,47.10
2019-01-21T07:13:08.001Z,44.70
2019-01-21T07:14:07.997Z,49.20
2019-01-21T07:15:07.985Z,44.80
2019-01-21T07:16:07.983Z,46.50
2019-01-21T07:17:07.991Z,53.00
2019-01-21T07:18:07.967Z,53.10
2019-01-21T07:19:11.064Z,52.90
2019-01-21T07:20:07.944Z,48.30
2019-01-21T07:21:07.924Z,50.10
2019-01-21T07:22:07.929Z,49.90
2019-01-21T07:23:07.929Z,50.00
2019-01-21T07:24:07.924Z,49.60
2019-01-21T07:25:07.884Z,47.40
2019-01-21T07:26:07.872Z,48.90
2019-01-21T07:27:07.855Z,48.80
2019-01-21T07:28:07.865Z,50.00
2019-01-21T07:29:07.862Z,50.80
2019-01-21T07:30:07.855Z,50.70
2019-01-21T07:31:07.812Z,50.90
2019-01-21T07:32:07.817Z,49.60
2019-01-21T07:33:07.823Z,48.50
2019-01-21T07:34:07.796Z,49.10
2019-01-21T07:35:07.769Z,48.40
2019-01-21T07:36:07.750Z,50.90
2019-01-21T07:37:07.778Z,51.90
2019-01-21T07:38:07.738Z,49.90
2019-01-21T07:39:07.742Z,54.50
2019-01-21T07:40:07.786Z,51.90
2019-01-21T07:41:07.720Z,52.80
2019-01-21T07:42:07.697Z,52.10
2019-01-21T07:43:07.681Z,53.00
2019-01-21T07:44:07.682Z,54.00
2019-01-21T07:45:07.664Z,51.80
2019-01-21T07:46:07.645Z,53.40
2019-01-21T07:47:07.644Z,53.70
2019-01-21T07:48:07.625Z,54.20
2019-01-21T07:49:07.645Z,50.30
2019-01-21T07:50:07.609Z,51.00
2019-01-21T07:51:07.588Z,61.10
2019-01-21T07:52:07.587Z,55.90
2019-01-21T07:53:07.612Z,55.20
2019-01-21T07:54:07.564Z,54.20
2019-01-21T07:55:07.563Z,54.30
2019-01-21T07:56:07.543Z,55.20
2019-01-21T07:57:07.524Z,54.50
2019-01-21T07:58:07.518Z,54.20
2019-01-21T07:59:07.513Z,51.80
2019-01-21T08:00:07.519Z,55.80
2019-01-21T08:01:07.492Z,54.70
2019-01-21T08:02:07.478Z,54.00
2019-01-21T08:03:07.484Z,53.20
2019-01-21T08:04:07.462Z,56.70
2019-01-21T08:05:07.457Z,58.90
2019-01-21T08:06:07.436Z,57.20
2019-01-21T08:07:07.424Z,61.40
2019-01-21T08:08:07.412Z,59.90
2019-01-21T08:09:07.396Z,54.50
2019-01-21T08:10:07.463Z,55.60
2019-01-21T08:11:07.382Z,57.80
2019-01-21T08:12:07.363Z,60.60
2019-01-21T08:13:07.347Z,61.10
2019-01-21T08:14:08.066Z,62.90
2019-01-21T08:15:07.332Z,60.90
2019-01-21T08:16:07.353Z,59.40
2019-01-21T08:17:07.317Z,61.80
2019-01-21T08:18:07.305Z,62.50
2019-01-21T08:19:07.310Z,61.70
2019-01-21T08:20:07.363Z,65.30
2019-01-21T08:21:07.284Z,63.80
2019-01-21T08:22:07.254Z,64.80
2019-01-21T08:23:07.252Z,60.90
2019-01-21T08:24:07.230Z,61.80
2019-01-21T08:25:07.228Z,61.00
2019-01-21T08:26:07.233Z,62.90
2019-01-21T08:27:07.207Z,65.60
2019-01-21T08:28:07.189Z,59.40
2019-01-21T08:29:07.188Z,60.90
2019-01-21T08:30:07.171Z,64.10
2019-01-21T08:31:07.172Z,64.20
2019-01-21T08:32:07.158Z,61.80
2019-01-21T08:33:07.139Z,61.20
2019-01-21T08:34:07.126Z,59.90
2019-01-21T08:35:07.215Z,63.60
2019-01-21T08:36:07.313Z,65.30
2019-01-21T08:37:07.103Z,60.80
2019-01-21T08:38:07.145Z,59.00
2019-01-21T08:39:07.092Z,62.60
2019-01-21T08:40:07.077Z,59.20
2019-01-21T08:41:07.106Z,63.40
2019-01-21T08:42:07.064Z,57.10
2019-01-21T08:43:07.025Z,58.50
2019-01-21T08:44:07.101Z,55.10
2019-01-21T08:45:07.025Z,58.40
2019-01-21T08:46:06.992Z,56.10
2019-01-21T08:47:07.005Z,58.30
2019-01-21T08:48:06.982Z,55.50
2019-01-21T08:49:06.963Z,55.30
2019-01-21T08:50:06.953Z,56.70
2019-01-21T08:51:06.939Z,56.40
2019-01-21T08:52:06.941Z,58.50
2019-01-21T08:53:06.931Z,59.40
2019-01-21T08:54:06.912Z,55.70
2019-01-21T08:55:06.914Z,60.40
2019-01-21T08:56:06.885Z,59.80
2019-01-21T08:57:06.908Z,62.10
2019-01-21T08:58:06.861Z,60.40
2019-01-21T08:59:06.860Z,60.80
2019-01-21T09:00:06.858Z,61.10
2019-01-21T09:01:06.828Z,60.70
2019-01-21T09:02:06.847Z,59.40
2019-01-21T09:03:06.877Z,64.00
2019-01-21T09:04:06.796Z,62.10
2019-01-21T09:05:06.809Z,61.00
2019-01-21T09:06:06.813Z,62.70
2019-01-21T09:07:06.759Z,59.60
2019-01-21T09:08:06.779Z,62.80
2019-01-21T09:09:06.753Z,54.80
2019-01-21T09:10:06.744Z,54.90
2019-01-21T09:11:06.727Z,58.50
2019-01-21T09:12:06.727Z,55.30
2019-01-21T09:13:06.722Z,57.00
2019-01-21T09:14:06.691Z,57.80
2019-01-21T09:15:06.713Z,57.90
2019-01-21T09:16:06.671Z,57.20
2019-01-21T09:17:06.668Z,62.10
2019-01-21T09:18:06.678Z,56.90
2019-01-21T09:19:06.654Z,58.10
2019-01-21T09:20:10.679Z,57.80
2019-01-21T09:21:06.622Z,54.90
2019-01-21T09:22:06.645Z,55.50
2019-01-21T09:23:06.637Z,56.20
2019-01-21T09:24:06.590Z,59.00
2019-01-21T09:25:06.570Z,57.40
2019-01-21T09:26:06.576Z,57.60
2019-01-21T09:27:06.576Z,58.10
2019-01-21T09:28:06.549Z,56.30
2019-01-21T09:29:06.563Z,55.10
2019-01-21T09:30:06.512Z,61.10
2019-01-21T09:31:06.513Z,54.00
2019-01-21T09:32:06.512Z,58.70
2019-01-21T09:33:06.492Z,55.60
2019-01-21T09:34:06.494Z,55.80
2019-01-21T09:35:06.467Z,56.70
2019-01-21T09:36:06.449Z,56.70
2019-01-21T09:37:06.436Z,59.70
2019-01-21T09:38:06.429Z,58.40
2019-01-21T09:39:06.456Z,58.40
2019-01-21T09:40:06.424Z,60.90
2019-01-21T09:41:06.421Z,54.40
2019-01-21T09:42:06.384Z,61.50
2019-01-21T09:43:06.384Z,57.70
2019-01-21T09:44:06.360Z,61.40
2019-01-21T09:45:06.448Z,58.30
2019-01-21T09:46:06.394Z,59.60
2019-01-21T09:47:06.351Z,59.70
2019-01-21T09:48:06.319Z,63.60
2019-01-21T09:49:06.314Z,61.40
2019-01-21T09:50:06.319Z,55.50
2019-01-21T09:51:06.285Z,57.40
2019-01-21T09:52:06.280Z,59.70
2019-01-21T09:53:06.267Z,62.30
2019-01-21T09:54:06.261Z,59.90
2019-01-21T09:55:06.267Z,59.90
2019-01-21T09:56:06.231Z,58.70
2019-01-21T09:57:06.219Z,63.60
2019-01-21T09:58:06.216Z,63.90
2019-01-21T09:59:06.217Z,65.20
2019-01-21T10:00:06.226Z,60.10
2019-01-21T10:01:06.176Z,63.10
2019-01-21T10:02:06.183Z,58.90
2019-01-21T10:03:06.154Z,64.50
2019-01-21T10:04:06.153Z,61.30
2019-01-21T10:05:06.163Z,61.00
2019-01-21T10:06:06.117Z,59.80
2019-01-21T10:07:07.275Z,62.40
2019-01-21T10:08:06.115Z,62.90
2019-01-21T10:09:06.098Z,57.10
2019-01-21T10:10:06.102Z,58.30
2019-01-21T10:11:06.092Z,59.70
2019-01-21T10:12:06.078Z,58.10
2019-01-21T10:13:06.060Z,62.90
2019-01-21T10:14:06.040Z,64.00
2019-01-21T10:15:06.068Z,61.80
2019-01-21T10:16:06.007Z,60.70
2019-01-21T10:17:06.012Z,61.70
2019-01-21T10:18:05.992Z,58.30
2019-01-21T10:19:06.002Z,59.80
2019-01-21T10:20:05.967Z,56.70
2019-01-21T10:21:05.972Z,51.70
2019-01-21T10:22:05.948Z,55.00
2019-01-21T10:23:05.980Z,54.50
2019-01-21T10:24:05.932Z,53.10
2019-01-21T10:25:05.924Z,54.40
2019-01-21T10:26:05.968Z,58.70
2019-01-21T10:27:05.904Z,62.60
2019-01-21T10:28:05.888Z,60.90
2019-01-21T10:29:05.922Z,65.60
2019-01-21T10:30:05.874Z,63.00
2019-01-21T10:31:05.862Z,71.00
2019-01-21T10:32:05.848Z,67.30
2019-01-21T10:33:05.840Z,68.70
2019-01-21T10:34:05.811Z,68.00
2019-01-21T10:35:05.802Z,68.00
2019-01-21T10:36:05.802Z,65.60
2019-01-21T10:37:05.795Z,67.70
2019-01-21T10:38:05.768Z,69.40
2019-01-21T10:39:05.759Z,67.00
2019-01-21T10:40:08.001Z,66.20
2019-01-21T10:41:05.742Z,61.30
2019-01-21T10:42:05.752Z,64.00
2019-01-21T10:43:05.727Z,64.70
2019-01-21T10:44:05.716Z,63.60
2019-01-21T10:45:05.718Z,59.40
2019-01-21T10:46:05.690Z,59.10
2019-01-21T10:47:05.749Z,60.70
2019-01-21T10:48:05.668Z,60.70
2019-01-21T10:49:05.646Z,61.10
2019-01-21T10:50:05.638Z,56.70
2019-01-21T10:51:05.630Z,62.50
2019-01-21T10:52:05.635Z,59.80
2019-01-21T10:53:05.606Z,67.30
2019-01-21T10:54:05.606Z,62.10
2019-01-21T10:55:05.590Z,66.30
2019-01-21T10:56:05.590Z,61.60
2019-01-21T10:57:05.586Z,60.90
2019-01-21T10:58:05.565Z,60.90
2019-01-21T10:59:05.546Z,67.20
2019-01-21T11:00:05.540Z,67.10
2019-01-21T11:01:05.529Z,64.60
2019-01-21T11:02:05.533Z,67.00
2019-01-21T11:03:05.500Z,65.20
2019-01-21T11:04:05.492Z,64.70
2019-01-21T11:05:05.478Z,64.80
2019-01-21T11:06:05.462Z,64.00
2019-01-21T11:07:05.474Z,68.20
2019-01-21T11:08:05.446Z,66.10
2019-01-21T11:09:05.432Z,61.60
2019-01-21T11:10:05.431Z,66.30
2019-01-21T11:11:05.422Z,65.80
2019-01-21T11:12:05.429Z,66.30
2019-01-21T11:13:05.397Z,67.10
2019-01-21T11:14:05.386Z,62.70
2019-01-21T11:15:05.392Z,65.90
2019-01-21T11:16:05.383Z,68.70
2019-01-21T11:17:05.343Z,67.30
2019-01-21T11:18:05.350Z,66.40
2019-01-21T11:19:05.325Z,68.30
2019-01-21T11:20:05.331Z,73.10
2019-01-21T11:21:05.294Z,72.60
2019-01-21T11:22:05.300Z,69.00
2019-01-21T11:23:06.305Z,67.40
2019-01-21T11:24:05.264Z,71.60
2019-01-21T11:25:05.261Z,67.80
2019-01-21T11:26:05.261Z,65.90
2019-01-21T11:27:05.232Z,64.20
2019-01-21T11:28:05.254Z,65.50
2019-01-21T11:29:05.218Z,66.30
2019-01-21T11:30:05.203Z,65.80
2019-01-21T11:31:05.196Z,63.80
2019-01-21T11:32:05.184Z,66.10
2019-01-21T11:33:05.200Z,65.00
2019-01-21T11:34:05.161Z,63.50
2019-01-21T11:35:05.146Z,64.20
2019-01-21T11:36:05.148Z,65.40
2019-01-21T11:37:05.124Z,70.90
2019-01-21T11:38:05.137Z,69.30
2019-01-21T11:39:05.134Z,65.50
2019-01-21T11:40:05.095Z,70.90
2019-01-21T11:41:05.077Z,66.70
2019-01-21T11:42:05.073Z,66.20
2019-01-21T11:43:05.086Z,69.80
2019-01-21T11:44:05.055Z,67.90
2019-01-21T11:45:05.045Z,64.90
2019-01-21T11:46:05.024Z,68.10
2019-01-21T11:47:05.036Z,60.90
2019-01-21T11:48:05.016Z,64.10
2019-01-21T11:49:05.005Z,65.50
2019-01-21T11:50:10.495Z,63.10
2019-01-21T11:51:05.975Z,62.50
2019-01-21T11:52:04.959Z,68.60
2019-01-21T11:53:04.976Z,65.10
2019-01-21T11:54:04.946Z,66.80
2019-01-21T11:55:04.940Z,61.90
2019-01-21T11:56:04.918Z,65.80
2019-01-21T11:57:04.906Z,62.70
2019-01-21T11:58:04.898Z,67.90
2019-01-21T11:59:04.921Z,68.10
2019-01-21T12:00:04.885Z,64.50
2019-01-21T12:01:04.889Z,70.40
2019-01-21T12:02:04.854Z,67.40
2019-01-21T12:03:04.843Z,68.70
2019-01-21T12:04:04.861Z,70.60
2019-01-21T12:05:04.825Z,70.80
2019-01-21T12:06:04.814Z,67.30
2019-01-21T12:07:04.799Z,66.20
2019-01-21T12:08:04.782Z,62.30
2019-01-21T12:09:04.801Z,61.20
2019-01-21T12:10:04.763Z,63.20
2019-01-21T12:11:06.004Z,64.70
2019-01-21T12:12:04.742Z,67.10
2019-01-21T12:13:04.727Z,69.50
2019-01-21T12:14:04.740Z,68.40
2019-01-21T12:15:04.728Z,64.60
2019-01-21T12:16:04.691Z,61.70
2019-01-21T12:17:04.688Z,61.90
2019-01-21T12:18:04.679Z,64.10
2019-01-21T12:19:04.680Z,62.30
2019-01-21T12:20:04.669Z,66.70
2019-01-21T12:21:04.647Z,65.00
2019-01-21T12:22:04.633Z,65.60
2019-01-21T12:23:04.613Z,66.40
2019-01-21T12:24:04.647Z,61.30
2019-01-21T12:25:04.610Z,67.20
2019-01-21T12:26:04.588Z,62.50
2019-01-21T12:27:04.569Z,65.70
2019-01-21T12:28:04.575Z,63.80
2019-01-21T12:29:04.571Z,62.20
2019-01-21T12:30:04.544Z,62.00
2019-01-21T12:31:04.544Z,62.90
2019-01-21T12:32:04.516Z,60.80
2019-01-21T12:33:04.511Z,62.30
2019-01-21T12:34:04.536Z,66.10
2019-01-21T12:35:04.519Z,60.30
2019-01-21T12:36:04.478Z,63.30
2019-01-21T12:37:04.474Z,61.10
2019-01-21T12:38:04.465Z,62.30
2019-01-21T12:39:04.455Z,65.20
2019-01-21T12:40:04.461Z,62.50
2019-01-21T12:41:04.421Z,62.30
2019-01-21T12:42:04.434Z,61.40
2019-01-21T12:43:04.403Z,61.90
2019-01-21T12:44:04.412Z,61.50
2019-01-21T12:45:04.413Z,57.40
2019-01-21T12:46:04.365Z,63.10
2019-01-21T12:47:04.362Z,62.60
2019-01-21T12:48:04.349Z,62.40
2019-01-21T12:49:04.332Z,60.50
2019-01-21T12:50:04.362Z,60.30
2019-01-21T12:51:04.318Z,61.90
2019-01-21T12:52:04.321Z,64.70